createdAt,value
2018-09-25T00:01:32.408Z,10.30
2018-09-25T00:04:12.196Z,10.60
2018-09-25T00:06:51.976Z,11.40
2018-09-25T00:09:31.605Z,10.20
2018-09-25T00:12:11.460Z,10.20
2018-09-25T00:14:50.851Z,10.20
2018-09-25T00:17:30.520Z,10.80
2018-09-25T00:20:10.235Z,10.10
2018-09-25T00:22:50.095Z,10.20
2018-09-25T00:25:29.904Z,10.20
2018-09-25T00:28:09.777Z,9.70
2018-09-25T00:30:49.456Z,9.30
2018-09-25T00:33:28.999Z,9.50
2018-09-25T00:36:09.019Z,8.60
2018-09-25T00:38:50.508Z,8.70
2018-09-25T00:41:30.091Z,8.60
2018-09-25T00:44:09.760Z,8.70
2018-09-25T00:46:49.578Z,8.70
2018-09-25T00:49:29.115Z,8.70
2018-09-25T00:52:08.885Z,8.30
2018-09-25T00:54:48.347Z,8.60
2018-09-25T00:57:28.008Z,8.20
2018-09-25T01:00:07.749Z,8.70
2018-09-25T01:02:47.437Z,8.20
2018-09-25T01:05:27.613Z,8.60
2018-09-25T01:08:07.765Z,8.60
2018-09-25T01:10:47.815Z,8.60
2018-09-25T01:13:28.618Z,8.70
2018-09-25T01:16:08.172Z,8.90
2018-09-25T01:18:47.838Z,8.50
2018-09-25T01:21:27.822Z,8.60
2018-09-25T01:24:07.652Z,8.80
2018-09-25T01:26:48.337Z,9.00
2018-09-25T01:29:28.196Z,9.70
2018-09-25T01:32:08.014Z,10.00
2018-09-25T01:34:47.736Z,9.80
2018-09-25T01:37:27.596Z,10.00
2018-09-25T01:40:07.394Z,11.00
2018-09-25T01:42:47.997Z,10.70
2018-09-25T01:45:27.821Z,11.10
2018-09-25T01:48:07.565Z,11.10
2018-09-25T01:50:47.141Z,11.60
2018-09-25T01:53:28.915Z,12.20
2018-09-25T01:56:08.635Z,11.90
2018-09-25T01:58:48.212Z,12.00
2018-09-25T02:01:27.777Z,11.90
2018-09-25T02:04:07.382Z,12.70
2018-09-25T02:06:47.101Z,12.70
2018-09-25T02:09:27.953Z,12.60
2018-09-25T02:12:08.263Z,12.50
2018-09-25T02:14:47.823Z,12.80
2018-09-25T02:17:28.089Z,12.90
2018-09-25T02:20:07.864Z,12.80
2018-09-25T02:22:47.608Z,13.40
2018-09-25T02:25:27.244Z,13.50
2018-09-25T02:28:07.699Z,13.90
2018-09-25T02:30:47.956Z,14.10
2018-09-25T02:33:28.215Z,13.90
2018-09-25T02:36:08.380Z,14.30
2018-09-25T02:38:48.017Z,14.10
2018-09-25T02:41:27.534Z,14.10
2018-09-25T02:44:07.826Z,14.00
2018-09-25T02:46:47.962Z,14.20
2018-09-25T02:49:27.700Z,14.40
2018-09-25T02:52:07.587Z,14.70
2018-09-25T02:54:47.803Z,15.10
2018-09-25T02:57:28.580Z,15.10
2018-09-25T03:00:08.892Z,15.60
2018-09-25T03:02:48.592Z,15.40
2018-09-25T03:05:28.429Z,15.60
2018-09-25T03:08:08.380Z,16.40
2018-09-25T03:10:47.835Z,15.70
2018-09-25T03:13:29.568Z,15.70
2018-09-25T03:16:09.063Z,15.80
2018-09-25T03:18:48.893Z,15.80
2018-09-25T03:21:28.372Z,15.80
2018-09-25T03:24:07.938Z,15.70
2018-09-25T03:26:47.517Z,15.70
2018-09-25T03:29:28.084Z,15.70
2018-09-25T03:32:09.604Z,15.80
2018-09-25T03:34:53.847Z,15.80
2018-09-25T03:37:33.650Z,15.80
2018-09-25T03:40:13.328Z,15.80
2018-09-25T03:42:52.863Z,15.80
2018-09-25T03:45:33.537Z,15.80
2018-09-25T03:48:13.276Z,15.80
2018-09-25T03:50:53.027Z,15.80
2018-09-25T03:53:33.557Z,15.80
2018-09-25T03:56:13.204Z,15.80
2018-09-25T03:58:52.980Z,15.80
2018-09-25T04:01:33.045Z,15.80
2018-09-25T04:04:12.832Z,15.70
2018-09-25T04:06:52.278Z,15.80
2018-09-25T04:09:32.251Z,15.70
2018-09-25T04:12:12.885Z,15.70
2018-09-25T04:14:52.429Z,15.80
2018-09-25T04:17:32.082Z,15.80
2018-09-25T04:20:12.219Z,15.80
2018-09-25T04:22:53.016Z,15.80
2018-09-25T04:25:32.820Z,15.70
2018-09-25T04:28:12.651Z,15.80
2018-09-25T04:30:52.598Z,15.80
2018-09-25T04:33:32.535Z,15.90
2018-09-25T04:36:12.485Z,16.10
2018-09-25T04:38:52.381Z,15.90
2018-09-25T04:41:32.133Z,15.90
2018-09-25T04:44:12.026Z,15.90
2018-09-25T04:46:51.928Z,16.00
2018-09-25T04:49:31.848Z,16.00
2018-09-25T04:52:11.495Z,16.10
2018-09-25T04:54:51.184Z,15.00
2018-09-25T04:57:32.128Z,14.40
2018-09-25T05:00:12.875Z,13.90
2018-09-25T05:02:52.771Z,13.70
2018-09-25T05:05:32.516Z,12.50
2018-09-25T05:08:12.078Z,11.70
2018-09-25T05:10:52.129Z,11.40
2018-09-25T05:13:33.140Z,10.70
2018-09-25T05:16:14.879Z,10.80
2018-09-25T05:18:56.565Z,10.00
2018-09-25T05:21:36.203Z,9.70
2018-09-25T05:24:15.907Z,9.70
2018-09-25T05:26:55.591Z,8.90
2018-09-25T05:29:35.317Z,9.00
2018-09-25T05:32:15.960Z,9.00
2018-09-25T05:34:58.502Z,9.00
2018-09-25T05:37:38.334Z,9.00
2018-09-25T05:40:19.385Z,7.70
2018-09-25T05:42:59.285Z,6.70
2018-09-25T05:45:39.110Z,5.90
2018-09-25T05:48:19.015Z,5.60
2018-09-25T05:50:59.337Z,5.70
2018-09-25T05:53:38.975Z,5.30
2018-09-25T05:56:20.959Z,5.20
2018-09-25T05:59:05.389Z,3.30
2018-09-25T06:01:45.172Z,2.60
2018-09-25T06:04:24.818Z,2.40
2018-09-25T06:07:04.468Z,2.10
2018-09-25T06:09:44.281Z,2.00
2018-09-25T06:12:24.140Z,1.70
2018-09-25T06:15:04.063Z,1.70
2018-09-25T06:17:44.954Z,1.70
2018-09-25T06:20:24.772Z,1.70
2018-09-25T06:23:05.851Z,1.00
2018-09-25T06:25:45.441Z,1.30
2018-09-25T06:28:25.489Z,1.00
2018-09-25T06:31:05.445Z,1.00
2018-09-25T06:33:45.280Z,1.00
2018-09-25T06:36:25.084Z,1.00
2018-09-25T06:39:05.076Z,1.00
2018-09-25T06:41:44.669Z,1.00
2018-09-25T06:44:24.336Z,1.00
2018-09-25T06:47:04.092Z,1.00
2018-09-25T06:49:44.300Z,1.00
2018-09-25T06:52:24.241Z,1.00
2018-09-25T06:55:04.004Z,1.00
2018-09-25T06:57:43.578Z,1.00
2018-09-25T07:00:23.342Z,1.00
2018-09-25T07:03:02.951Z,1.00
2018-09-25T07:05:42.857Z,1.00
2018-09-25T07:08:22.376Z,1.00
2018-09-25T07:11:01.965Z,1.00
2018-09-25T07:13:41.752Z,1.00
2018-09-25T07:16:21.664Z,1.00
2018-09-25T07:19:01.505Z,1.00
2018-09-25T07:21:42.238Z,1.00
2018-09-25T07:24:22.538Z,1.00
2018-09-25T07:27:03.449Z,1.00
2018-09-25T07:29:44.348Z,1.00
2018-09-25T07:32:25.328Z,1.00
2018-09-25T07:35:05.472Z,1.00
2018-09-25T07:37:45.361Z,1.00
2018-09-25T07:40:25.250Z,1.00
2018-09-25T07:43:05.013Z,1.00
2018-09-25T07:45:44.711Z,1.00
2018-09-25T07:48:24.663Z,1.00
2018-09-25T07:51:05.302Z,1.00
2018-09-25T07:53:45.025Z,1.00
2018-09-25T07:56:24.850Z,1.00
2018-09-25T07:59:05.039Z,1.00
2018-09-25T08:01:44.703Z,1.00
2018-09-25T08:04:24.391Z,1.00
2018-09-25T08:07:03.926Z,1.00
2018-09-25T08:09:43.631Z,1.00
2018-09-25T08:12:23.377Z,1.00
2018-09-25T08:15:02.880Z,1.00
2018-09-25T08:17:42.660Z,1.00
2018-09-25T08:20:23.835Z,1.00
2018-09-25T08:23:04.012Z,1.00
2018-09-25T08:25:43.860Z,1.00
2018-09-25T08:28:23.560Z,1.00
2018-09-25T08:31:03.535Z,1.00
2018-09-25T08:33:44.227Z,1.00
2018-09-25T08:36:24.220Z,1.00
2018-09-25T08:39:03.910Z,1.00
2018-09-25T08:41:44.006Z,1.00
2018-09-25T08:44:23.864Z,1.00
2018-09-25T08:47:03.636Z,1.00
2018-09-25T08:49:43.402Z,1.00
2018-09-25T08:52:23.325Z,1.00
2018-09-25T08:55:03.058Z,1.00
2018-09-25T08:57:43.108Z,1.00
2018-09-25T09:00:23.253Z,1.00
2018-09-25T09:03:03.078Z,1.00
2018-09-25T09:05:43.058Z,1.00
2018-09-25T09:08:22.790Z,1.00
2018-09-25T09:11:02.727Z,1.00
2018-09-25T09:13:43.386Z,1.00
2018-09-25T09:16:23.059Z,1.00
2018-09-25T09:19:02.822Z,1.00
2018-09-25T09:21:42.820Z,1.00
2018-09-25T09:24:22.524Z,1.00
2018-09-25T09:27:03.997Z,1.00
2018-09-25T09:29:43.799Z,1.00
2018-09-25T09:32:23.487Z,1.00
2018-09-25T09:35:05.002Z,1.00
2018-09-25T09:37:44.696Z,1.00
2018-09-25T09:40:24.328Z,1.00
2018-09-25T09:43:03.991Z,1.00
2018-09-25T09:45:44.367Z,1.00
2018-09-25T09:48:24.073Z,1.00
2018-09-25T09:51:04.114Z,1.00
2018-09-25T09:53:45.062Z,1.00
2018-09-25T09:56:25.163Z,1.00
2018-09-25T09:59:05.444Z,1.00
2018-09-25T10:01:45.394Z,1.00
2018-09-25T10:04:25.225Z,1.00
2018-09-25T10:07:05.804Z,1.00
2018-09-25T10:09:45.508Z,1.00
2018-09-25T10:12:25.909Z,1.00
2018-09-25T10:15:05.420Z,1.00
2018-09-25T10:17:45.866Z,1.00
2018-09-25T10:20:25.666Z,1.00
2018-09-25T10:23:05.546Z,1.00
2018-09-25T10:25:45.602Z,1.00
2018-09-25T10:28:25.379Z,1.00
2018-09-25T10:31:05.099Z,1.00
2018-09-25T10:33:44.873Z,1.00
2018-09-25T10:36:24.786Z,1.00
2018-09-25T10:39:05.537Z,1.00
2018-09-25T10:41:45.293Z,1.00
2018-09-25T10:44:25.820Z,1.00
2018-09-25T10:47:05.520Z,1.00
2018-09-25T10:49:45.325Z,1.00
2018-09-25T10:52:24.910Z,1.00
2018-09-25T10:55:04.753Z,1.00
2018-09-25T10:57:44.399Z,1.00
2018-09-25T11:00:24.192Z,1.00
2018-09-25T11:03:03.990Z,1.00
2018-09-25T11:05:43.592Z,1.00
2018-09-25T11:08:23.289Z,1.00
2018-09-25T11:11:02.960Z,1.00
2018-09-25T11:13:42.606Z,1.00
2018-09-25T11:16:22.409Z,1.00
2018-09-25T11:19:02.992Z,1.00
2018-09-25T11:21:42.556Z,1.00
2018-09-25T11:24:22.330Z,1.00
2018-09-25T11:27:02.177Z,1.00
2018-09-25T11:29:41.951Z,1.00
2018-09-25T11:32:21.683Z,1.00
2018-09-25T11:35:01.428Z,1.00
2018-09-25T11:37:41.119Z,1.00
2018-09-25T11:40:20.601Z,1.00
2018-09-25T11:43:00.362Z,1.00
2018-09-25T11:45:40.951Z,1.00
2018-09-25T11:48:20.824Z,1.00
2018-09-25T11:51:00.423Z,1.00
2018-09-25T11:53:41.181Z,1.00
2018-09-25T11:56:21.214Z,1.00
2018-09-25T11:59:01.086Z,1.00
2018-09-25T12:01:40.962Z,1.00
2018-09-25T12:04:23.597Z,1.00
2018-09-25T12:07:03.864Z,1.00
2018-09-25T12:09:44.686Z,1.00
2018-09-25T12:12:24.872Z,1.00
2018-09-25T12:15:05.760Z,1.00
2018-09-25T12:17:46.130Z,1.00
2018-09-25T12:23:24.135Z,1.00
2018-09-25T12:26:04.473Z,1.00
2018-09-25T12:28:44.508Z,1.00
2018-09-25T12:31:24.421Z,1.00
2018-09-25T12:34:04.266Z,1.00
2018-09-25T12:36:43.800Z,1.00
2018-09-25T12:39:24.402Z,1.00
2018-09-25T12:42:04.127Z,1.00
2018-09-25T12:44:43.929Z,1.00
2018-09-25T12:47:23.616Z,1.00
2018-09-25T12:50:03.237Z,1.00
2018-09-25T12:52:43.158Z,1.00
2018-09-25T12:55:23.255Z,1.00
2018-09-25T12:58:04.380Z,1.00
2018-09-25T13:00:44.076Z,1.00
2018-09-25T13:03:24.785Z,1.00
2018-09-25T13:06:04.649Z,1.00
2018-09-25T13:08:44.497Z,1.00
2018-09-25T13:11:24.198Z,1.00
2018-09-25T13:14:04.112Z,1.00
2018-09-25T13:16:44.389Z,1.00
2018-09-25T13:19:24.205Z,1.00
2018-09-25T13:22:04.033Z,1.00
2018-09-25T13:24:43.785Z,1.00
2018-09-25T13:27:23.594Z,1.00
2018-09-25T13:30:03.186Z,1.00
2018-09-25T13:32:42.906Z,1.00
2018-09-25T13:35:22.759Z,1.00
2018-09-25T13:38:02.426Z,1.00
2018-09-25T13:40:42.189Z,1.00
2018-09-25T13:43:21.593Z,1.00
2018-09-25T13:46:01.235Z,1.00
2018-09-25T13:48:41.239Z,1.00
2018-09-25T13:51:21.250Z,1.00
2018-09-25T13:54:01.078Z,1.00
2018-09-25T13:56:40.760Z,1.00
2018-09-25T13:59:20.456Z,1.00
2018-09-25T14:02:00.082Z,1.00
2018-09-25T14:04:39.736Z,1.00
2018-09-25T14:07:19.445Z,1.00
2018-09-25T14:09:59.385Z,1.00
2018-09-25T14:12:38.944Z,1.00
2018-09-25T14:15:18.703Z,1.00
2018-09-25T14:17:58.453Z,1.00
2018-09-25T14:20:38.292Z,1.00
2018-09-25T14:23:18.135Z,1.00
2018-09-25T14:25:57.780Z,1.00
2018-09-25T14:28:37.521Z,1.00
2018-09-25T14:31:17.072Z,1.00
2018-09-25T14:33:57.572Z,1.00
2018-09-25T14:36:37.549Z,1.00
2018-09-25T14:39:17.220Z,1.00
2018-09-25T14:41:56.931Z,1.00
2018-09-25T14:44:36.512Z,1.00
2018-09-25T14:47:16.135Z,1.00
2018-09-25T14:49:55.600Z,1.00
2018-09-25T14:52:37.234Z,1.00
2018-09-25T14:55:16.916Z,1.00
2018-09-25T14:57:56.744Z,1.00
2018-09-25T15:00:37.764Z,1.00
2018-09-25T15:03:17.743Z,1.00
2018-09-25T15:05:58.835Z,1.00
2018-09-25T15:08:38.565Z,1.00
2018-09-25T15:11:18.490Z,1.00
2018-09-25T15:13:58.190Z,1.00
2018-09-25T15:16:37.860Z,1.00
2018-09-25T15:19:17.612Z,1.00
2018-09-25T15:21:57.423Z,1.00
2018-09-25T15:24:37.180Z,1.00
2018-09-25T15:27:17.100Z,1.00
2018-09-25T15:29:56.879Z,1.00
2018-09-25T15:32:36.503Z,1.00
2018-09-25T15:35:18.072Z,1.00
2018-09-25T15:37:58.741Z,1.00
2018-09-25T15:40:38.329Z,1.00
2018-09-25T15:43:17.952Z,1.00
2018-09-25T15:45:58.867Z,1.00
2018-09-25T15:48:39.598Z,1.00
2018-09-25T15:54:04.511Z,1.00
2018-09-25T15:56:45.472Z,1.00
2018-09-25T15:59:28.368Z,1.00
2018-09-25T16:02:08.081Z,1.00
2018-09-25T16:04:48.078Z,1.00
2018-09-25T16:07:28.798Z,1.00
2018-09-25T16:10:08.219Z,1.00
2018-09-25T16:12:48.067Z,1.00
2018-09-25T16:15:27.602Z,1.00
2018-09-25T16:18:07.530Z,1.00
2018-09-25T16:20:47.281Z,1.00
2018-09-25T16:23:26.925Z,1.00
2018-09-25T16:26:06.924Z,1.00
2018-09-25T16:28:47.691Z,1.00
2018-09-25T16:31:28.516Z,1.00
2018-09-25T16:34:08.629Z,1.00
2018-09-25T16:36:48.427Z,1.00
2018-09-25T16:39:29.181Z,1.00
2018-09-25T16:42:08.993Z,1.00
2018-09-25T16:44:48.667Z,1.00
2018-09-25T16:47:28.316Z,1.00
2018-09-25T16:50:08.081Z,1.00
2018-09-25T16:52:47.665Z,1.00
2018-09-25T16:55:27.419Z,1.00
2018-09-25T16:58:07.037Z,1.00
2018-09-25T17:00:46.809Z,1.00
2018-09-25T17:03:26.578Z,1.00
2018-09-25T17:06:06.304Z,1.00
2018-09-25T17:08:45.904Z,1.00
2018-09-25T17:11:25.636Z,1.00
2018-09-25T17:14:05.417Z,1.00
2018-09-25T17:16:45.273Z,1.00
2018-09-25T17:19:24.906Z,1.00
2018-09-25T17:22:04.465Z,1.00
2018-09-25T17:24:44.342Z,1.00
2018-09-25T17:27:24.560Z,1.00
2018-09-25T17:30:04.308Z,1.00
2018-09-25T17:32:43.847Z,1.00
2018-09-25T17:35:23.666Z,1.00
2018-09-25T17:38:03.508Z,1.00
2018-09-25T17:40:43.054Z,1.00
2018-09-25T17:43:22.829Z,1.00
2018-09-25T17:46:02.788Z,1.00
2018-09-25T17:48:42.434Z,1.00
2018-09-25T17:51:22.090Z,1.00
2018-09-25T17:54:02.405Z,1.00
2018-09-25T17:56:42.040Z,1.00
2018-09-25T17:59:21.793Z,1.00
2018-09-25T18:02:01.845Z,1.00
2018-09-25T18:04:41.628Z,1.00
2018-09-25T18:07:21.111Z,1.00
2018-09-25T18:10:00.821Z,1.00
2018-09-25T18:12:40.670Z,1.00
2018-09-25T18:15:20.266Z,1.00
2018-09-25T18:17:59.962Z,1.00
2018-09-25T18:20:39.739Z,1.00
2018-09-25T18:23:19.408Z,1.00
2018-09-25T18:25:59.241Z,1.00
2018-09-25T18:28:38.876Z,1.00
2018-09-25T18:31:18.326Z,1.00
2018-09-25T18:33:57.880Z,1.00
2018-09-25T18:36:37.635Z,1.00
2018-09-25T18:39:17.412Z,1.00
2018-09-25T18:41:57.037Z,1.00
2018-09-25T18:44:36.761Z,1.00
2018-09-25T18:47:16.245Z,1.00
2018-09-25T18:49:56.073Z,1.00
2018-09-25T18:52:35.663Z,1.00
2018-09-25T18:55:15.506Z,1.00
2018-09-25T18:57:55.071Z,1.00
2018-09-25T19:00:34.816Z,1.00
2018-09-25T19:03:14.433Z,1.00
2018-09-25T19:05:54.276Z,1.00
2018-09-25T19:08:34.033Z,1.00
2018-09-25T19:11:13.562Z,1.00
2018-09-25T19:13:53.829Z,1.00
2018-09-25T19:16:33.433Z,1.00
2018-09-25T19:19:12.897Z,1.00
2018-09-25T19:21:52.826Z,1.00
2018-09-25T19:24:32.309Z,1.00
2018-09-25T19:27:12.127Z,1.00
2018-09-25T19:29:51.850Z,1.00
2018-09-25T19:32:32.176Z,1.00
2018-09-25T19:35:12.273Z,1.00
2018-09-25T19:37:51.973Z,1.00
2018-09-25T19:40:31.514Z,1.00
2018-09-25T19:43:11.346Z,1.00
2018-09-25T19:45:50.932Z,1.00
2018-09-25T19:48:30.712Z,1.00
2018-09-25T19:51:10.672Z,1.00
2018-09-25T19:53:50.480Z,1.00
2018-09-25T19:56:30.295Z,1.00
2018-09-25T19:59:11.049Z,1.00
2018-09-25T20:01:50.970Z,1.00
2018-09-25T20:04:30.430Z,1.00
2018-09-25T20:07:10.075Z,1.00
2018-09-25T20:09:49.548Z,1.00
2018-09-25T20:12:29.147Z,1.00
2018-09-25T20:15:08.663Z,1.00
2018-09-25T20:17:48.312Z,1.00
2018-09-25T20:20:28.219Z,1.00
2018-09-25T20:23:08.425Z,1.00
2018-09-25T20:25:48.016Z,1.00
2018-09-25T20:28:27.587Z,1.00
2018-09-25T20:31:07.275Z,1.00
2018-09-25T20:33:46.823Z,1.00
2018-09-25T20:36:26.565Z,1.00
2018-09-25T20:39:06.221Z,1.00
2018-09-25T20:41:45.916Z,1.00
2018-09-25T20:44:25.980Z,1.00
2018-09-25T20:47:05.648Z,1.00
2018-09-25T20:49:46.412Z,1.00
2018-09-25T20:52:26.255Z,1.00
2018-09-25T20:55:06.100Z,1.00
2018-09-25T20:57:45.710Z,1.00
2018-09-25T21:00:25.272Z,1.00
2018-09-25T21:03:05.032Z,1.00
2018-09-25T21:05:44.576Z,1.00
2018-09-25T21:08:24.435Z,1.00
2018-09-25T21:11:04.703Z,1.00
2018-09-25T21:13:44.510Z,1.00
2018-09-25T21:16:24.327Z,1.00
2018-09-25T21:19:04.075Z,1.00
2018-09-25T21:21:44.849Z,1.00
2018-09-25T21:24:24.530Z,1.00
2018-09-25T21:27:04.091Z,1.00
2018-09-25T21:29:44.030Z,1.00
2018-09-25T21:32:23.926Z,1.00
2018-09-25T21:35:04.497Z,1.00
2018-09-25T21:37:44.195Z,1.00
2018-09-25T21:40:23.797Z,1.00
2018-09-25T21:43:03.618Z,1.00
2018-09-25T21:45:43.181Z,1.00
2018-09-25T21:48:22.960Z,1.00
2018-09-25T21:51:04.082Z,1.00
2018-09-25T21:53:43.366Z,1.00
2018-09-25T21:56:23.678Z,1.00
2018-09-25T21:59:03.259Z,1.00
2018-09-25T22:01:42.975Z,1.00
2018-09-25T22:04:22.604Z,1.00
2018-09-25T22:07:02.466Z,1.00
2018-09-25T22:09:42.135Z,1.00
2018-09-25T22:12:21.721Z,1.00
2018-09-25T22:15:01.297Z,1.00
2018-09-25T22:17:41.040Z,1.00
2018-09-25T22:20:20.671Z,1.00
2018-09-25T22:23:00.230Z,1.00
2018-09-25T22:25:39.768Z,1.00
2018-09-25T22:28:19.388Z,1.00
2018-09-25T22:30:59.125Z,1.00
2018-09-25T22:33:38.740Z,1.00
2018-09-25T22:36:18.939Z,1.00
2018-09-25T22:38:58.589Z,1.00
2018-09-25T22:41:38.199Z,1.00
2018-09-25T22:44:18.027Z,1.00
2018-09-25T22:46:58.425Z,1.00
2018-09-25T22:49:38.121Z,1.00
2018-09-25T22:52:17.976Z,1.00
2018-09-25T22:54:57.607Z,1.00
2018-09-25T22:57:37.313Z,1.00
2018-09-25T23:00:16.977Z,1.00
2018-09-25T23:02:57.069Z,1.00
2018-09-25T23:05:38.711Z,1.00
2018-09-25T23:08:18.603Z,1.00
2018-09-25T23:10:58.529Z,1.00
2018-09-25T23:13:38.104Z,1.00
2018-09-25T23:16:17.729Z,1.00
2018-09-25T23:18:57.314Z,1.00
2018-09-25T23:21:36.857Z,1.00
2018-09-25T23:24:16.519Z,1.00
2018-09-25T23:26:56.247Z,1.00
2018-09-25T23:29:36.008Z,1.00
2018-09-25T23:32:15.529Z,1.00
2018-09-25T23:34:56.325Z,1.00
2018-09-25T23:37:36.069Z,1.00
2018-09-25T23:40:20.809Z,1.00
2018-09-25T23:43:00.824Z,1.00
2018-09-25T23:45:39.829Z,1.00
2018-09-25T23:48:18.650Z,1.00
2018-09-25T23:50:58.967Z,1.00
2018-09-25T23:53:38.633Z,1.00
2018-09-25T23:56:18.540Z,1.00
2018-09-25T23:58:55.813Z,1.00
